sensor_id;sensor_type;location;lat;lon;timestamp;P1;durP1;ratioP1;P2;durP2;ratioP2
50946;SDS011;36955;47.416;7.716;2022-12-07T00:00:07;21.83;;;12.30;;
50946;SDS011;36955;47.416;7.716;2022-12-07T00:02:34;20.70;;;12.35;;
50946;SDS011;36955;47.416;7.716;2022-12-07T00:05:00;18.20;;;12.30;;
50946;SDS011;36955;47.416;7.716;2022-12-07T00:07:26;20.45;;;12.95;;
50946;SDS011;36955;47.416;7.716;2022-12-07T00:09:52;20.85;;;13.18;;
50946;SDS011;36955;47.416;7.716;2022-12-07T00:12:18;20.17;;;12.73;;
50946;SDS011;36955;47.416;7.716;2022-12-07T00:14:44;21.25;;;14.00;;
50946;SDS011;36955;47.416;7.716;2022-12-07T00:17:10;22.10;;;13.98;;
50946;SDS011;36955;47.416;7.716;2022-12-07T00:19:36;23.05;;;15.20;;
50946;SDS011;36955;47.416;7.716;2022-12-07T00:22:02;26.77;;;14.15;;
50946;SDS011;36955;47.416;7.716;2022-12-07T00:24:28;25.85;;;15.98;;
50946;SDS011;36955;47.416;7.716;2022-12-07T00:26:54;27.33;;;16.52;;
50946;SDS011;36955;47.416;7.716;2022-12-07T00:29:20;25.13;;;15.50;;
50946;SDS011;36955;47.416;7.716;2022-12-07T00:31:47;26.70;;;16.23;;
50946;SDS011;36955;47.416;7.716;2022-12-07T00:34:14;29.15;;;16.65;;
50946;SDS011;36955;47.416;7.716;2022-12-07T00:36:42;29.52;;;16.92;;
50946;SDS011;36955;47.416;7.716;2022-12-07T00:39:08;30.30;;;17.42;;
50946;SDS011;36955;47.416;7.716;2022-12-07T00:41:34;32.28;;;17.75;;
50946;SDS011;36955;47.416;7.716;2022-12-07T00:44:00;29.17;;;16.73;;
50946;SDS011;36955;47.416;7.716;2022-12-07T00:46:26;28.48;;;16.83;;
50946;SDS011;36955;47.416;7.716;2022-12-07T00:48:53;32.33;;;17.75;;
50946;SDS011;36955;47.416;7.716;2022-12-07T00:51:20;32.63;;;17.77;;
50946;SDS011;36955;47.416;7.716;2022-12-07T00:53:48;30.15;;;17.35;;
50946;SDS011;36955;47.416;7.716;2022-12-07T00:56:15;30.73;;;17.55;;
50946;SDS011;36955;47.416;7.716;2022-12-07T00:59:10;34.45;;;17.67;;
50946;SDS011;36955;47.416;7.716;2022-12-07T01:01:37;34.65;;;17.73;;
50946;SDS011;36955;47.416;7.716;2022-12-07T01:04:04;28.05;;;16.30;;
50946;SDS011;36955;47.416;7.716;2022-12-07T01:06:30;31.48;;;17.90;;
50946;SDS011;36955;47.416;7.716;2022-12-07T01:08:57;30.15;;;17.13;;
50946;SDS011;36955;47.416;7.716;2022-12-07T01:11:25;33.25;;;17.40;;
50946;SDS011;36955;47.416;7.716;2022-12-07T01:13:53;45.47;;;16.20;;
50946;SDS011;36955;47.416;7.716;2022-12-07T01:16:22;32.90;;;18.10;;
50946;SDS011;36955;47.416;7.716;2022-12-07T01:18:50;34.67;;;19.58;;
50946;SDS011;36955;47.416;7.716;2022-12-07T01:21:19;34.95;;;18.25;;
50946;SDS011;36955;47.416;7.716;2022-12-07T01:23:47;32.40;;;16.90;;
50946;SDS011;36955;47.416;7.716;2022-12-07T01:26:15;35.25;;;18.02;;
50946;SDS011;36955;47.416;7.716;2022-12-07T01:28:44;36.33;;;19.08;;
50946;SDS011;36955;47.416;7.716;2022-12-07T01:31:11;37.00;;;19.27;;
50946;SDS011;36955;47.416;7.716;2022-12-07T01:33:39;33.67;;;18.02;;
50946;SDS011;36955;47.416;7.716;2022-12-07T01:36:11;31.70;;;17.67;;
50946;SDS011;36955;47.416;7.716;2022-12-07T01:38:40;32.17;;;17.40;;
50946;SDS011;36955;47.416;7.716;2022-12-07T01:41:07;32.92;;;17.23;;
50946;SDS011;36955;47.416;7.716;2022-12-07T01:43:34;31.33;;;17.70;;
50946;SDS011;36955;47.416;7.716;2022-12-07T01:46:00;33.00;;;17.65;;
50946;SDS011;36955;47.416;7.716;2022-12-07T01:48:30;35.05;;;18.38;;
50946;SDS011;36955;47.416;7.716;2022-12-07T01:51:01;33.97;;;18.40;;
50946;SDS011;36955;47.416;7.716;2022-12-07T01:53:30;33.90;;;17.80;;
50946;SDS011;36955;47.416;7.716;2022-12-07T01:56:01;33.15;;;18.17;;
50946;SDS011;36955;47.416;7.716;2022-12-07T01:58:27;35.67;;;18.05;;
50946;SDS011;36955;47.416;7.716;2022-12-07T02:00:54;40.42;;;19.85;;
50946;SDS011;36955;47.416;7.716;2022-12-07T02:03:31;32.75;;;17.98;;
50946;SDS011;36955;47.416;7.716;2022-12-07T02:06:08;32.55;;;18.38;;
50946;SDS011;36955;47.416;7.716;2022-12-07T02:08:36;32.20;;;17.98;;
50946;SDS011;36955;47.416;7.716;2022-12-07T02:11:03;69.85;;;18.98;;
50946;SDS011;36955;47.416;7.716;2022-12-07T02:13:32;37.63;;;17.75;;
50946;SDS011;36955;47.416;7.716;2022-12-07T02:18:58;29.30;;;16.45;;
50946;SDS011;36955;47.416;7.716;2022-12-07T02:35:20;80.50;;;17.23;;
50946;SDS011;36955;47.416;7.716;2022-12-07T02:40:27;75.70;;;18.77;;
50946;SDS011;36955;47.416;7.716;2022-12-07T02:43:12;53.70;;;19.02;;
50946;SDS011;36955;47.416;7.716;2022-12-07T02:45:54;37.97;;;17.17;;
50946;SDS011;36955;47.416;7.716;2022-12-07T02:48:23;38.65;;;17.13;;
50946;SDS011;36955;47.416;7.716;2022-12-07T02:50:52;34.75;;;17.60;;
50946;SDS011;36955;47.416;7.716;2022-12-07T03:02:06;29.42;;;15.65;;
50946;SDS011;36955;47.416;7.716;2022-12-07T03:05:37;35.00;;;16.52;;
50946;SDS011;36955;47.416;7.716;2022-12-07T03:18:37;28.75;;;15.70;;
50946;SDS011;36955;47.416;7.716;2022-12-07T03:21:09;30.10;;;16.08;;
50946;SDS011;36955;47.416;7.716;2022-12-07T03:23:40;31.25;;;17.42;;
50946;SDS011;36955;47.416;7.716;2022-12-07T03:26:09;31.85;;;16.42;;
50946;SDS011;36955;47.416;7.716;2022-12-07T03:28:40;30.58;;;17.25;;
50946;SDS011;36955;47.416;7.716;2022-12-07T03:31:11;35.70;;;18.73;;
50946;SDS011;36955;47.416;7.716;2022-12-07T03:33:47;34.05;;;17.63;;
50946;SDS011;36955;47.416;7.716;2022-12-07T03:36:37;31.88;;;17.88;;
50946;SDS011;36955;47.416;7.716;2022-12-07T03:42:02;31.75;;;17.50;;
50946;SDS011;36955;47.416;7.716;2022-12-07T03:44:31;32.28;;;17.35;;
50946;SDS011;36955;47.416;7.716;2022-12-07T03:47:04;33.67;;;18.50;;
50946;SDS011;36955;47.416;7.716;2022-12-07T03:49:41;30.42;;;17.25;;
50946;SDS011;36955;47.416;7.716;2022-12-07T03:52:18;74.53;;;37.92;;
50946;SDS011;36955;47.416;7.716;2022-12-07T03:57:22;66.35;;;35.50;;
50946;SDS011;36955;47.416;7.716;2022-12-07T03:59:50;63.28;;;38.15;;
50946;SDS011;36955;47.416;7.716;2022-12-07T04:02:18;29.57;;;16.93;;
50946;SDS011;36955;47.416;7.716;2022-12-07T04:04:45;26.85;;;15.95;;
50946;SDS011;36955;47.416;7.716;2022-12-07T04:07:12;30.75;;;17.17;;
50946;SDS011;36955;47.416;7.716;2022-12-07T04:09:38;34.83;;;18.00;;
50946;SDS011;36955;47.416;7.716;2022-12-07T04:12:04;29.77;;;15.98;;
50946;SDS011;36955;47.416;7.716;2022-12-07T04:14:30;31.23;;;17.42;;
50946;SDS011;36955;47.416;7.716;2022-12-07T04:16:57;31.20;;;18.00;;
50946;SDS011;36955;47.416;7.716;2022-12-07T04:19:24;32.67;;;18.05;;
50946;SDS011;36955;47.416;7.716;2022-12-07T04:21:52;33.50;;;16.38;;
50946;SDS011;36955;47.416;7.716;2022-12-07T04:24:19;31.42;;;17.02;;
50946;SDS011;36955;47.416;7.716;2022-12-07T04:26:45;30.25;;;17.13;;
50946;SDS011;36955;47.416;7.716;2022-12-07T04:29:12;31.33;;;16.60;;
50946;SDS011;36955;47.416;7.716;2022-12-07T04:31:39;35.00;;;18.58;;
50946;SDS011;36955;47.416;7.716;2022-12-07T04:34:05;31.10;;;17.05;;
50946;SDS011;36955;47.416;7.716;2022-12-07T04:36:31;32.15;;;16.65;;
50946;SDS011;36955;47.416;7.716;2022-12-07T04:38:58;35.22;;;17.73;;
50946;SDS011;36955;47.416;7.716;2022-12-07T04:41:25;35.35;;;17.65;;
50946;SDS011;36955;47.416;7.716;2022-12-07T04:43:51;40.45;;;20.35;;
50946;SDS011;36955;47.416;7.716;2022-12-07T04:46:20;64.60;;;20.17;;
50946;SDS011;36955;47.416;7.716;2022-12-07T04:48:47;93.70;;;31.00;;
50946;SDS011;36955;47.416;7.716;2022-12-07T04:51:15;43.03;;;21.58;;
50946;SDS011;36955;47.416;7.716;2022-12-07T04:53:44;37.22;;;18.58;;
50946;SDS011;36955;47.416;7.716;2022-12-07T04:56:10;42.38;;;20.50;;
50946;SDS011;36955;47.416;7.716;2022-12-07T04:58:36;34.65;;;18.38;;
50946;SDS011;36955;47.416;7.716;2022-12-07T05:01:02;35.05;;;18.48;;
50946;SDS011;36955;47.416;7.716;2022-12-07T05:03:28;104.03;;;21.27;;
50946;SDS011;36955;47.416;7.716;2022-12-07T05:05:54;137.65;;;23.55;;
50946;SDS011;36955;47.416;7.716;2022-12-07T05:08:20;101.63;;;26.85;;
50946;SDS011;36955;47.416;7.716;2022-12-07T05:10:48;152.98;;;24.02;;
50946;SDS011;36955;47.416;7.716;2022-12-07T05:13:14;241.65;;;30.42;;
50946;SDS011;36955;47.416;7.716;2022-12-07T05:15:40;324.67;;;31.00;;
50946;SDS011;36955;47.416;7.716;2022-12-07T05:18:06;342.85;;;40.80;;
50946;SDS011;36955;47.416;7.716;2022-12-07T05:20:32;83.82;;;22.55;;
50946;SDS011;36955;47.416;7.716;2022-12-07T05:22:58;142.43;;;24.70;;
50946;SDS011;36955;47.416;7.716;2022-12-07T05:25:25;236.07;;;27.73;;
50946;SDS011;36955;47.416;7.716;2022-12-07T05:27:51;102.47;;;22.50;;
50946;SDS011;36955;47.416;7.716;2022-12-07T05:30:17;331.83;;;35.50;;
50946;SDS011;36955;47.416;7.716;2022-12-07T05:32:43;236.85;;;30.48;;
50946;SDS011;36955;47.416;7.716;2022-12-07T05:35:09;523.33;;;41.58;;
50946;SDS011;36955;47.416;7.716;2022-12-07T05:37:35;224.23;;;25.90;;
50946;SDS011;36955;47.416;7.716;2022-12-07T05:40:01;434.38;;;34.55;;
50946;SDS011;36955;47.416;7.716;2022-12-07T05:42:28;396.55;;;35.28;;
50946;SDS011;36955;47.416;7.716;2022-12-07T05:44:54;327.20;;;30.08;;
50946;SDS011;36955;47.416;7.716;2022-12-07T05:47:20;137.27;;;22.67;;
50946;SDS011;36955;47.416;7.716;2022-12-07T05:49:46;209.93;;;24.38;;
50946;SDS011;36955;47.416;7.716;2022-12-07T05:52:12;49.85;;;18.85;;
50946;SDS011;36955;47.416;7.716;2022-12-07T05:54:38;293.10;;;29.25;;
50946;SDS011;36955;47.416;7.716;2022-12-07T05:57:04;168.13;;;23.40;;
50946;SDS011;36955;47.416;7.716;2022-12-07T05:59:30;92.55;;;34.08;;
50946;SDS011;36955;47.416;7.716;2022-12-07T06:02:00;197.52;;;26.70;;
50946;SDS011;36955;47.416;7.716;2022-12-07T06:04:32;77.28;;;24.90;;
50946;SDS011;36955;47.416;7.716;2022-12-07T06:07:01;281.23;;;42.88;;
50946;SDS011;36955;47.416;7.716;2022-12-07T06:09:27;134.02;;;30.27;;
50946;SDS011;36955;47.416;7.716;2022-12-07T06:11:54;300.42;;;38.50;;
50946;SDS011;36955;47.416;7.716;2022-12-07T06:14:20;97.43;;;32.90;;
50946;SDS011;36955;47.416;7.716;2022-12-07T06:16:46;38.75;;;19.92;;
50946;SDS011;36955;47.416;7.716;2022-12-07T06:19:12;92.72;;;23.17;;
50946;SDS011;36955;47.416;7.716;2022-12-07T06:21:38;62.75;;;17.88;;
50946;SDS011;36955;47.416;7.716;2022-12-07T06:24:05;48.13;;;16.48;;
50946;SDS011;36955;47.416;7.716;2022-12-07T06:26:31;32.65;;;15.98;;
50946;SDS011;36955;47.416;7.716;2022-12-07T06:28:57;23.67;;;13.20;;
50946;SDS011;36955;47.416;7.716;2022-12-07T06:31:24;25.15;;;14.38;;
50946;SDS011;36955;47.416;7.716;2022-12-07T06:33:50;25.23;;;13.63;;
50946;SDS011;36955;47.416;7.716;2022-12-07T06:36:16;25.13;;;14.20;;
50946;SDS011;36955;47.416;7.716;2022-12-07T06:38:42;23.30;;;13.48;;
50946;SDS011;36955;47.416;7.716;2022-12-07T06:41:08;20.98;;;11.85;;
50946;SDS011;36955;47.416;7.716;2022-12-07T06:43:34;19.98;;;11.63;;
50946;SDS011;36955;47.416;7.716;2022-12-07T06:46:00;26.23;;;14.98;;
50946;SDS011;36955;47.416;7.716;2022-12-07T06:48:26;21.95;;;13.27;;
50946;SDS011;36955;47.416;7.716;2022-12-07T06:50:52;20.13;;;12.52;;
50946;SDS011;36955;47.416;7.716;2022-12-07T06:53:18;20.58;;;10.90;;
50946;SDS011;36955;47.416;7.716;2022-12-07T06:55:44;23.75;;;14.13;;
50946;SDS011;36955;47.416;7.716;2022-12-07T06:58:10;18.73;;;11.43;;
50946;SDS011;36955;47.416;7.716;2022-12-07T07:00:36;39.40;;;23.20;;
50946;SDS011;36955;47.416;7.716;2022-12-07T07:03:02;21.55;;;13.05;;
50946;SDS011;36955;47.416;7.716;2022-12-07T07:05:28;19.25;;;11.02;;
50946;SDS011;36955;47.416;7.716;2022-12-07T07:07:54;20.55;;;12.60;;
50946;SDS011;36955;47.416;7.716;2022-12-07T07:10:20;26.95;;;14.02;;
50946;SDS011;36955;47.416;7.716;2022-12-07T07:12:46;24.70;;;15.45;;
50946;SDS011;36955;47.416;7.716;2022-12-07T07:15:13;26.77;;;14.63;;
50946;SDS011;36955;47.416;7.716;2022-12-07T07:17:39;20.50;;;11.77;;
50946;SDS011;36955;47.416;7.716;2022-12-07T07:20:05;27.35;;;15.90;;
50946;SDS011;36955;47.416;7.716;2022-12-07T07:22:31;27.50;;;14.38;;
50946;SDS011;36955;47.416;7.716;2022-12-07T07:24:57;25.10;;;14.23;;
50946;SDS011;36955;47.416;7.716;2022-12-07T07:27:23;24.38;;;13.32;;
50946;SDS011;36955;47.416;7.716;2022-12-07T07:29:49;29.02;;;15.88;;
50946;SDS011;36955;47.416;7.716;2022-12-07T07:32:15;29.00;;;16.35;;
50946;SDS011;36955;47.416;7.716;2022-12-07T07:34:42;28.35;;;17.38;;
50946;SDS011;36955;47.416;7.716;2022-12-07T07:37:08;23.02;;;13.63;;
50946;SDS011;36955;47.416;7.716;2022-12-07T07:39:34;25.70;;;14.88;;
50946;SDS011;36955;47.416;7.716;2022-12-07T07:42:00;23.90;;;13.85;;
50946;SDS011;36955;47.416;7.716;2022-12-07T07:44:26;21.15;;;12.38;;
50946;SDS011;36955;47.416;7.716;2022-12-07T07:46:52;23.25;;;13.20;;
50946;SDS011;36955;47.416;7.716;2022-12-07T07:49:18;21.50;;;12.48;;
50946;SDS011;36955;47.416;7.716;2022-12-07T07:51:44;23.50;;;13.65;;
50946;SDS011;36955;47.416;7.716;2022-12-07T07:54:10;21.27;;;12.07;;
50946;SDS011;36955;47.416;7.716;2022-12-07T07:56:36;20.23;;;11.38;;
50946;SDS011;36955;47.416;7.716;2022-12-07T07:59:02;19.30;;;11.93;;
50946;SDS011;36955;47.416;7.716;2022-12-07T08:01:28;22.85;;;12.23;;
50946;SDS011;36955;47.416;7.716;2022-12-07T08:03:54;20.88;;;11.65;;
50946;SDS011;36955;47.416;7.716;2022-12-07T08:06:20;19.58;;;10.70;;
50946;SDS011;36955;47.416;7.716;2022-12-07T08:08:46;21.55;;;11.95;;
50946;SDS011;36955;47.416;7.716;2022-12-07T08:11:12;22.85;;;12.68;;
50946;SDS011;36955;47.416;7.716;2022-12-07T08:13:38;17.55;;;10.10;;
50946;SDS011;36955;47.416;7.716;2022-12-07T08:16:05;18.58;;;10.65;;
50946;SDS011;36955;47.416;7.716;2022-12-07T08:18:36;19.85;;;11.13;;
50946;SDS011;36955;47.416;7.716;2022-12-07T08:21:03;16.45;;;9.65;;
50946;SDS011;36955;47.416;7.716;2022-12-07T08:23:31;18.67;;;11.27;;
50946;SDS011;36955;47.416;7.716;2022-12-07T08:26:01;14.10;;;9.30;;
50946;SDS011;36955;47.416;7.716;2022-12-07T08:28:31;15.98;;;9.25;;
50946;SDS011;36955;47.416;7.716;2022-12-07T08:31:01;15.10;;;8.90;;
50946;SDS011;36955;47.416;7.716;2022-12-07T08:33:28;11.95;;;7.47;;
50946;SDS011;36955;47.416;7.716;2022-12-07T08:35:54;13.82;;;8.55;;
50946;SDS011;36955;47.416;7.716;2022-12-07T08:38:25;14.35;;;9.07;;
50946;SDS011;36955;47.416;7.716;2022-12-07T08:40:54;13.90;;;8.93;;
50946;SDS011;36955;47.416;7.716;2022-12-07T08:43:21;15.90;;;9.93;;
50946;SDS011;36955;47.416;7.716;2022-12-07T08:45:53;17.70;;;11.05;;
50946;SDS011;36955;47.416;7.716;2022-12-07T08:48:40;14.85;;;8.65;;
50946;SDS011;36955;47.416;7.716;2022-12-07T08:51:13;15.50;;;8.88;;
50946;SDS011;36955;47.416;7.716;2022-12-07T08:53:40;14.60;;;8.52;;
50946;SDS011;36955;47.416;7.716;2022-12-07T08:56:07;13.65;;;8.30;;
50946;SDS011;36955;47.416;7.716;2022-12-07T08:58:34;13.70;;;8.10;;
50946;SDS011;36955;47.416;7.716;2022-12-07T09:01:01;11.02;;;7.25;;
50946;SDS011;36955;47.416;7.716;2022-12-07T09:03:28;12.63;;;8.02;;
50946;SDS011;36955;47.416;7.716;2022-12-07T09:05:54;16.02;;;8.93;;
50946;SDS011;36955;47.416;7.716;2022-12-07T09:08:21;15.68;;;8.55;;
50946;SDS011;36955;47.416;7.716;2022-12-07T09:10:50;13.30;;;8.48;;
50946;SDS011;36955;47.416;7.716;2022-12-07T09:13:16;14.10;;;8.20;;
50946;SDS011;36955;47.416;7.716;2022-12-07T09:15:42;11.60;;;7.30;;
50946;SDS011;36955;47.416;7.716;2022-12-07T09:18:08;14.82;;;7.85;;
50946;SDS011;36955;47.416;7.716;2022-12-07T09:20:34;12.25;;;7.80;;
50946;SDS011;36955;47.416;7.716;2022-12-07T09:23:01;15.00;;;9.25;;
50946;SDS011;36955;47.416;7.716;2022-12-07T09:25:27;12.75;;;8.25;;
50946;SDS011;36955;47.416;7.716;2022-12-07T09:27:56;15.15;;;10.52;;
50946;SDS011;36955;47.416;7.716;2022-12-07T09:30:23;15.70;;;11.07;;
50946;SDS011;36955;47.416;7.716;2022-12-07T09:32:49;15.50;;;9.52;;
50946;SDS011;36955;47.416;7.716;2022-12-07T09:35:15;14.43;;;8.82;;
50946;SDS011;36955;47.416;7.716;2022-12-07T09:37:41;12.65;;;8.43;;
50946;SDS011;36955;47.416;7.716;2022-12-07T09:40:07;12.80;;;8.20;;
50946;SDS011;36955;47.416;7.716;2022-12-07T09:42:35;14.05;;;8.93;;
50946;SDS011;36955;47.416;7.716;2022-12-07T09:45:04;16.25;;;9.65;;
50946;SDS011;36955;47.416;7.716;2022-12-07T09:47:32;15.95;;;9.93;;
50946;SDS011;36955;47.416;7.716;2022-12-07T09:50:12;17.08;;;10.63;;
50946;SDS011;36955;47.416;7.716;2022-12-07T09:52:49;20.83;;;12.40;;
50946;SDS011;36955;47.416;7.716;2022-12-07T09:55:22;16.20;;;9.88;;
50946;SDS011;36955;47.416;7.716;2022-12-07T09:57:52;15.70;;;9.27;;
50946;SDS011;36955;47.416;7.716;2022-12-07T10:00:19;14.07;;;9.25;;
50946;SDS011;36955;47.416;7.716;2022-12-07T10:03:00;129.13;;;62.92;;
50946;SDS011;36955;47.416;7.716;2022-12-07T10:05:44;24.08;;;14.85;;
50946;SDS011;36955;47.416;7.716;2022-12-07T10:08:12;17.10;;;10.98;;
50946;SDS011;36955;47.416;7.716;2022-12-07T10:10:38;19.55;;;13.07;;
50946;SDS011;36955;47.416;7.716;2022-12-07T10:13:06;20.77;;;12.98;;
50946;SDS011;36955;47.416;7.716;2022-12-07T10:18:19;16.02;;;10.13;;
50946;SDS011;36955;47.416;7.716;2022-12-07T10:20:47;16.65;;;10.82;;
50946;SDS011;36955;47.416;7.716;2022-12-07T10:23:15;18.25;;;10.93;;
50946;SDS011;36955;47.416;7.716;2022-12-07T10:25:42;18.52;;;11.10;;
50946;SDS011;36955;47.416;7.716;2022-12-07T10:28:11;16.75;;;11.23;;
50946;SDS011;36955;47.416;7.716;2022-12-07T10:33:35;22.00;;;11.68;;
50946;SDS011;36955;47.416;7.716;2022-12-07T10:36:21;20.75;;;12.90;;
50946;SDS011;36955;47.416;7.716;2022-12-07T10:38:58;17.77;;;11.10;;
50946;SDS011;36955;47.416;7.716;2022-12-07T10:41:29;16.20;;;10.30;;
50946;SDS011;36955;47.416;7.716;2022-12-07T10:43:56;18.13;;;11.30;;
50946;SDS011;36955;47.416;7.716;2022-12-07T10:54:50;16.63;;;11.00;;
50946;SDS011;36955;47.416;7.716;2022-12-07T11:00:09;15.77;;;10.30;;
50946;SDS011;36955;47.416;7.716;2022-12-07T11:08:33;17.52;;;11.23;;
50946;SDS011;36955;47.416;7.716;2022-12-07T11:13:52;17.38;;;10.73;;
50946;SDS011;36955;47.416;7.716;2022-12-07T11:17:16;15.43;;;10.73;;
50946;SDS011;36955;47.416;7.716;2022-12-07T11:21:57;18.60;;;11.95;;
50946;SDS011;36955;47.416;7.716;2022-12-07T11:24:32;18.45;;;12.57;;
50946;SDS011;36955;47.416;7.716;2022-12-07T11:35:14;20.70;;;13.25;;
50946;SDS011;36955;47.416;7.716;2022-12-07T11:37:51;18.90;;;12.63;;
50946;SDS011;36955;47.416;7.716;2022-12-07T11:40:33;17.75;;;12.20;;
50946;SDS011;36955;47.416;7.716;2022-12-07T11:43:04;21.27;;;13.48;;
50946;SDS011;36955;47.416;7.716;2022-12-07T11:45:41;17.75;;;11.98;;
50946;SDS011;36955;47.416;7.716;2022-12-07T11:48:17;19.63;;;13.07;;
50946;SDS011;36955;47.416;7.716;2022-12-07T11:50:56;21.67;;;12.82;;
50946;SDS011;36955;47.416;7.716;2022-12-07T11:53:25;20.02;;;12.68;;
50946;SDS011;36955;47.416;7.716;2022-12-07T12:03:44;20.27;;;13.20;;
50946;SDS011;36955;47.416;7.716;2022-12-07T12:06:29;18.45;;;12.48;;
50946;SDS011;36955;47.416;7.716;2022-12-07T12:09:02;19.42;;;13.23;;
50946;SDS011;36955;47.416;7.716;2022-12-07T12:16:59;16.95;;;11.65;;
50946;SDS011;36955;47.416;7.716;2022-12-07T12:22:41;55.45;;;29.55;;
50946;SDS011;36955;47.416;7.716;2022-12-07T12:25:19;20.90;;;13.00;;
50946;SDS011;36955;47.416;7.716;2022-12-07T12:27:55;18.13;;;11.85;;
50946;SDS011;36955;47.416;7.716;2022-12-07T12:30:36;17.48;;;11.45;;
50946;SDS011;36955;47.416;7.716;2022-12-07T12:33:27;15.23;;;10.65;;
50946;SDS011;36955;47.416;7.716;2022-12-07T12:44:02;15.38;;;10.48;;
50946;SDS011;36955;47.416;7.716;2022-12-07T12:46:55;18.25;;;10.90;;
50946;SDS011;36955;47.416;7.716;2022-12-07T12:55:11;19.55;;;12.02;;
50946;SDS011;36955;47.416;7.716;2022-12-07T12:57:40;17.92;;;11.93;;
50946;SDS011;36955;47.416;7.716;2022-12-07T13:00:22;16.13;;;10.75;;
50946;SDS011;36955;47.416;7.716;2022-12-07T13:02:50;15.85;;;10.20;;
50946;SDS011;36955;47.416;7.716;2022-12-07T13:15:33;14.52;;;9.65;;
50946;SDS011;36955;47.416;7.716;2022-12-07T13:18:02;15.85;;;10.82;;
50946;SDS011;36955;47.416;7.716;2022-12-07T13:33:43;12.52;;;8.95;;
50946;SDS011;36955;47.416;7.716;2022-12-07T13:36:23;15.13;;;9.52;;
50946;SDS011;36955;47.416;7.716;2022-12-07T13:38:55;13.85;;;9.07;;
50946;SDS011;36955;47.416;7.716;2022-12-07T13:41:23;13.52;;;9.45;;
50946;SDS011;36955;47.416;7.716;2022-12-07T13:49:48;19.90;;;12.95;;
50946;SDS011;36955;47.416;7.716;2022-12-07T13:57:22;14.23;;;10.00;;
50946;SDS011;36955;47.416;7.716;2022-12-07T13:59:51;13.23;;;8.38;;
50946;SDS011;36955;47.416;7.716;2022-12-07T14:02:19;11.63;;;8.05;;
50946;SDS011;36955;47.416;7.716;2022-12-07T14:04:47;12.52;;;8.05;;
50946;SDS011;36955;47.416;7.716;2022-12-07T14:09:55;20.98;;;14.45;;
50946;SDS011;36955;47.416;7.716;2022-12-07T14:12:26;15.75;;;10.32;;
50946;SDS011;36955;47.416;7.716;2022-12-07T14:14:54;15.80;;;10.48;;
50946;SDS011;36955;47.416;7.716;2022-12-07T14:17:23;15.65;;;10.45;;
50946;SDS011;36955;47.416;7.716;2022-12-07T14:19:52;13.93;;;10.13;;
50946;SDS011;36955;47.416;7.716;2022-12-07T14:24:48;19.05;;;12.50;;
50946;SDS011;36955;47.416;7.716;2022-12-07T14:27:19;28.08;;;17.35;;
50946;SDS011;36955;47.416;7.716;2022-12-07T14:29:47;24.83;;;15.70;;
50946;SDS011;36955;47.416;7.716;2022-12-07T14:32:21;22.73;;;13.87;;
50946;SDS011;36955;47.416;7.716;2022-12-07T14:37:28;24.33;;;14.30;;
50946;SDS011;36955;47.416;7.716;2022-12-07T14:39:56;23.27;;;14.93;;
50946;SDS011;36955;47.416;7.716;2022-12-07T14:42:23;24.65;;;15.27;;
50946;SDS011;36955;47.416;7.716;2022-12-07T14:44:52;19.90;;;12.30;;
50946;SDS011;36955;47.416;7.716;2022-12-07T14:47:18;18.27;;;11.18;;
50946;SDS011;36955;47.416;7.716;2022-12-07T14:49:44;23.30;;;12.48;;
50946;SDS011;36955;47.416;7.716;2022-12-07T14:52:13;19.13;;;11.33;;
50946;SDS011;36955;47.416;7.716;2022-12-07T14:54:48;20.52;;;12.18;;
50946;SDS011;36955;47.416;7.716;2022-12-07T14:57:14;16.60;;;11.07;;
50946;SDS011;36955;47.416;7.716;2022-12-07T14:59:40;18.83;;;11.50;;
50946;SDS011;36955;47.416;7.716;2022-12-07T15:02:08;19.33;;;11.40;;
50946;SDS011;36955;47.416;7.716;2022-12-07T15:04:36;16.48;;;10.30;;
50946;SDS011;36955;47.416;7.716;2022-12-07T15:07:03;16.00;;;10.38;;
50946;SDS011;36955;47.416;7.716;2022-12-07T15:09:30;16.42;;;9.82;;
50946;SDS011;36955;47.416;7.716;2022-12-07T15:11:57;16.40;;;10.45;;
50946;SDS011;36955;47.416;7.716;2022-12-07T15:14:23;15.77;;;10.63;;
50946;SDS011;36955;47.416;7.716;2022-12-07T15:16:49;16.63;;;10.50;;
50946;SDS011;36955;47.416;7.716;2022-12-07T15:19:17;15.88;;;10.15;;
50946;SDS011;36955;47.416;7.716;2022-12-07T15:21:44;18.92;;;10.73;;
50946;SDS011;36955;47.416;7.716;2022-12-07T15:24:11;17.17;;;10.48;;
50946;SDS011;36955;47.416;7.716;2022-12-07T15:26:38;17.73;;;10.75;;
50946;SDS011;36955;47.416;7.716;2022-12-07T15:29:05;17.23;;;9.07;;
50946;SDS011;36955;47.416;7.716;2022-12-07T15:31:32;15.68;;;8.90;;
50946;SDS011;36955;47.416;7.716;2022-12-07T15:33:58;18.45;;;10.07;;
50946;SDS011;36955;47.416;7.716;2022-12-07T15:36:26;15.75;;;10.10;;
50946;SDS011;36955;47.416;7.716;2022-12-07T15:38:53;15.88;;;9.68;;
50946;SDS011;36955;47.416;7.716;2022-12-07T15:41:20;17.70;;;9.50;;
50946;SDS011;36955;47.416;7.716;2022-12-07T15:43:47;21.65;;;10.00;;
50946;SDS011;36955;47.416;7.716;2022-12-07T15:46:13;20.17;;;12.15;;
50946;SDS011;36955;47.416;7.716;2022-12-07T15:48:39;20.75;;;11.13;;
50946;SDS011;36955;47.416;7.716;2022-12-07T15:51:08;20.27;;;10.70;;
50946;SDS011;36955;47.416;7.716;2022-12-07T15:53:35;18.40;;;10.43;;
50946;SDS011;36955;47.416;7.716;2022-12-07T15:56:05;17.70;;;10.25;;
50946;SDS011;36955;47.416;7.716;2022-12-07T15:58:32;18.98;;;10.85;;
50946;SDS011;36955;47.416;7.716;2022-12-07T16:00:58;17.42;;;10.05;;
50946;SDS011;36955;47.416;7.716;2022-12-07T16:03:24;17.50;;;11.10;;
50946;SDS011;36955;47.416;7.716;2022-12-07T16:05:50;18.30;;;11.73;;
50946;SDS011;36955;47.416;7.716;2022-12-07T16:08:17;22.00;;;10.82;;
50946;SDS011;36955;47.416;7.716;2022-12-07T16:10:43;21.02;;;11.77;;
50946;SDS011;36955;47.416;7.716;2022-12-07T16:13:12;18.33;;;11.02;;
50946;SDS011;36955;47.416;7.716;2022-12-07T16:15:39;19.73;;;11.07;;
50946;SDS011;36955;47.416;7.716;2022-12-07T16:18:05;17.52;;;10.02;;
50946;SDS011;36955;47.416;7.716;2022-12-07T16:20:32;21.00;;;10.75;;
50946;SDS011;36955;47.416;7.716;2022-12-07T16:22:58;22.27;;;14.05;;
50946;SDS011;36955;47.416;7.716;2022-12-07T16:25:24;23.17;;;12.48;;
50946;SDS011;36955;47.416;7.716;2022-12-07T16:27:52;23.38;;;14.18;;
50946;SDS011;36955;47.416;7.716;2022-12-07T16:30:18;22.13;;;13.10;;
50946;SDS011;36955;47.416;7.716;2022-12-07T16:32:44;17.60;;;10.43;;
50946;SDS011;36955;47.416;7.716;2022-12-07T16:35:11;18.93;;;10.40;;
50946;SDS011;36955;47.416;7.716;2022-12-07T16:37:37;17.15;;;9.77;;
50946;SDS011;36955;47.416;7.716;2022-12-07T16:40:04;17.30;;;10.32;;
50946;SDS011;36955;47.416;7.716;2022-12-07T16:42:32;17.65;;;9.70;;
50946;SDS011;36955;47.416;7.716;2022-12-07T16:44:59;24.58;;;13.77;;
50946;SDS011;36955;47.416;7.716;2022-12-07T16:47:26;18.55;;;10.93;;
50946;SDS011;36955;47.416;7.716;2022-12-07T16:49:52;20.75;;;11.13;;
50946;SDS011;36955;47.416;7.716;2022-12-07T16:52:19;15.85;;;9.25;;
50946;SDS011;36955;47.416;7.716;2022-12-07T16:54:45;40.17;;;22.00;;
50946;SDS011;36955;47.416;7.716;2022-12-07T16:57:12;25.15;;;14.63;;
50946;SDS011;36955;47.416;7.716;2022-12-07T16:59:38;20.13;;;12.05;;
50946;SDS011;36955;47.416;7.716;2022-12-07T17:02:04;21.50;;;12.05;;
50946;SDS011;36955;47.416;7.716;2022-12-07T17:04:31;16.30;;;11.10;;